sensor_id;sensor_type;location;lat;lon;timestamp;temperature;humidity
43920;DHT22;29578;51.946;5.874;2022-11-25T00:01:31;8.60;90.10
43920;DHT22;29578;51.946;5.874;2022-11-25T00:03:58;8.60;90.10
43920;DHT22;29578;51.946;5.874;2022-11-25T00:06:27;8.60;90.10
43920;DHT22;29578;51.946;5.874;2022-11-25T00:08:55;8.60;90.10
43920;DHT22;29578;51.946;5.874;2022-11-25T00:11:21;8.60;90.20
43920;DHT22;29578;51.946;5.874;2022-11-25T00:13:47;8.50;90.20
43920;DHT22;29578;51.946;5.874;2022-11-25T00:16:16;8.50;90.30
43920;DHT22;29578;51.946;5.874;2022-11-25T00:18:45;8.40;90.30
43920;DHT22;29578;51.946;5.874;2022-11-25T00:21:14;8.50;90.40
43920;DHT22;29578;51.946;5.874;2022-11-25T00:23:40;8.40;90.40
43920;DHT22;29578;51.946;5.874;2022-11-25T00:26:11;8.40;90.40
43920;DHT22;29578;51.946;5.874;2022-11-25T00:28:39;8.40;90.50
43920;DHT22;29578;51.946;5.874;2022-11-25T00:31:06;8.40;90.50
43920;DHT22;29578;51.946;5.874;2022-11-25T00:33:32;8.40;90.60
43920;DHT22;29578;51.946;5.874;2022-11-25T00:36:01;8.40;90.60
43920;DHT22;29578;51.946;5.874;2022-11-25T00:38:27;8.40;90.60
43920;DHT22;29578;51.946;5.874;2022-11-25T00:40:52;8.30;90.60
43920;DHT22;29578;51.946;5.874;2022-11-25T00:43:38;8.40;90.70
43920;DHT22;29578;51.946;5.874;2022-11-25T00:46:18;8.30;90.70
43920;DHT22;29578;51.946;5.874;2022-11-25T00:48:44;8.30;90.70
43920;DHT22;29578;51.946;5.874;2022-11-25T00:51:09;8.30;90.80
43920;DHT22;29578;51.946;5.874;2022-11-25T00:53:35;8.20;90.80
43920;DHT22;29578;51.946;5.874;2022-11-25T00:56:01;8.30;90.80
43920;DHT22;29578;51.946;5.874;2022-11-25T00:58:40;8.30;90.80
43920;DHT22;29578;51.946;5.874;2022-11-25T01:01:06;8.20;90.80
43920;DHT22;29578;51.946;5.874;2022-11-25T01:03:31;8.20;90.90
43920;DHT22;29578;51.946;5.874;2022-11-25T01:06:01;8.30;90.90
43920;DHT22;29578;51.946;5.874;2022-11-25T01:08:29;8.20;90.90
43920;DHT22;29578;51.946;5.874;2022-11-25T01:10:59;8.20;90.90
43920;DHT22;29578;51.946;5.874;2022-11-25T01:13:24;8.20;90.90
43920;DHT22;29578;51.946;5.874;2022-11-25T01:15:50;8.30;91.00
43920;DHT22;29578;51.946;5.874;2022-11-25T01:18:16;8.30;90.90
43920;DHT22;29578;51.946;5.874;2022-11-25T01:20:41;8.20;90.90
43920;DHT22;29578;51.946;5.874;2022-11-25T01:23:07;8.20;90.90
43920;DHT22;29578;51.946;5.874;2022-11-25T01:25:36;8.20;90.90
43920;DHT22;29578;51.946;5.874;2022-11-25T01:28:01;8.20;90.90
43920;DHT22;29578;51.946;5.874;2022-11-25T01:30:27;8.20;91.00
43920;DHT22;29578;51.946;5.874;2022-11-25T01:32:52;8.30;91.10
43920;DHT22;29578;51.946;5.874;2022-11-25T01:35:18;8.20;90.90
43920;DHT22;29578;51.946;5.874;2022-11-25T01:37:44;8.30;91.00
43920;DHT22;29578;51.946;5.874;2022-11-25T01:40:10;8.20;91.00
43920;DHT22;29578;51.946;5.874;2022-11-25T01:42:41;8.30;91.00
43920;DHT22;29578;51.946;5.874;2022-11-25T01:45:31;8.20;91.00
43920;DHT22;29578;51.946;5.874;2022-11-25T01:48:02;8.30;91.00
43920;DHT22;29578;51.946;5.874;2022-11-25T01:50:31;8.30;91.00
43920;DHT22;29578;51.946;5.874;2022-11-25T01:52:58;8.30;91.00
43920;DHT22;29578;51.946;5.874;2022-11-25T01:55:28;8.40;91.00
43920;DHT22;29578;51.946;5.874;2022-11-25T01:57:59;8.40;91.00
43920;DHT22;29578;51.946;5.874;2022-11-25T02:00:27;8.40;91.00
43920;DHT22;29578;51.946;5.874;2022-11-25T02:02:54;8.40;91.30
43920;DHT22;29578;51.946;5.874;2022-11-25T02:05:24;8.40;91.00
43920;DHT22;29578;51.946;5.874;2022-11-25T02:07:52;8.40;91.00
43920;DHT22;29578;51.946;5.874;2022-11-25T02:10:27;8.40;91.00
43920;DHT22;29578;51.946;5.874;2022-11-25T02:12:54;8.40;91.00
43920;DHT22;29578;51.946;5.874;2022-11-25T02:15:20;8.40;91.00
43920;DHT22;29578;51.946;5.874;2022-11-25T02:17:47;8.40;91.00
43920;DHT22;29578;51.946;5.874;2022-11-25T02:20:18;8.50;91.00
43920;DHT22;29578;51.946;5.874;2022-11-25T02:25:42;8.50;91.00
43920;DHT22;29578;51.946;5.874;2022-11-25T02:28:13;8.50;91.00
43920;DHT22;29578;51.946;5.874;2022-11-25T02:30:39;8.50;91.00
43920;DHT22;29578;51.946;5.874;2022-11-25T02:33:05;8.60;91.10
43920;DHT22;29578;51.946;5.874;2022-11-25T02:35:35;8.50;91.00
43920;DHT22;29578;51.946;5.874;2022-11-25T02:38:08;8.50;91.00
43920;DHT22;29578;51.946;5.874;2022-11-25T02:40:42;8.50;91.10
43920;DHT22;29578;51.946;5.874;2022-11-25T02:43:09;8.50;91.00
43920;DHT22;29578;51.946;5.874;2022-11-25T02:45:48;8.50;91.00
43920;DHT22;29578;51.946;5.874;2022-11-25T02:48:14;8.60;91.10
43920;DHT22;29578;51.946;5.874;2022-11-25T02:50:40;8.60;91.00
43920;DHT22;29578;51.946;5.874;2022-11-25T02:53:06;8.60;91.00
43920;DHT22;29578;51.946;5.874;2022-11-25T02:55:32;8.60;91.00
43920;DHT22;29578;51.946;5.874;2022-11-25T02:57:58;8.70;91.00
43920;DHT22;29578;51.946;5.874;2022-11-25T03:00:24;8.60;91.00
43920;DHT22;29578;51.946;5.874;2022-11-25T03:02:52;8.60;91.00
43920;DHT22;29578;51.946;5.874;2022-11-25T03:05:18;8.80;91.00
43920;DHT22;29578;51.946;5.874;2022-11-25T03:07:43;8.80;91.00
43920;DHT22;29578;51.946;5.874;2022-11-25T03:10:09;8.80;91.00
43920;DHT22;29578;51.946;5.874;2022-11-25T03:12:35;8.80;90.90
43920;DHT22;29578;51.946;5.874;2022-11-25T03:15:00;8.80;90.90
43920;DHT22;29578;51.946;5.874;2022-11-25T03:17:26;8.90;90.90
43920;DHT22;29578;51.946;5.874;2022-11-25T03:19:51;8.90;90.90
43920;DHT22;29578;51.946;5.874;2022-11-25T03:22:17;8.90;90.90
43920;DHT22;29578;51.946;5.874;2022-11-25T03:24:43;9.00;90.90
43920;DHT22;29578;51.946;5.874;2022-11-25T03:27:09;9.00;90.80
43920;DHT22;29578;51.946;5.874;2022-11-25T03:29:34;9.00;90.80
43920;DHT22;29578;51.946;5.874;2022-11-25T03:32:00;9.10;90.90
43920;DHT22;29578;51.946;5.874;2022-11-25T03:34:25;9.10;90.80
43920;DHT22;29578;51.946;5.874;2022-11-25T03:36:51;9.10;90.80
43920;DHT22;29578;51.946;5.874;2022-11-25T03:39:17;9.10;90.90
43920;DHT22;29578;51.946;5.874;2022-11-25T03:41:42;9.10;90.90
43920;DHT22;29578;51.946;5.874;2022-11-25T03:44:08;9.10;90.90
43920;DHT22;29578;51.946;5.874;2022-11-25T03:46:33;9.10;91.00
43920;DHT22;29578;51.946;5.874;2022-11-25T03:48:59;9.00;91.00
43920;DHT22;29578;51.946;5.874;2022-11-25T03:51:25;9.10;91.10
43920;DHT22;29578;51.946;5.874;2022-11-25T03:53:50;9.00;91.10
43920;DHT22;29578;51.946;5.874;2022-11-25T03:56:16;9.00;91.20
43920;DHT22;29578;51.946;5.874;2022-11-25T03:58:41;9.00;91.20
43920;DHT22;29578;51.946;5.874;2022-11-25T04:01:07;9.00;91.20
43920;DHT22;29578;51.946;5.874;2022-11-25T04:03:33;9.00;91.20
43920;DHT22;29578;51.946;5.874;2022-11-25T04:05:58;9.00;91.20
43920;DHT22;29578;51.946;5.874;2022-11-25T04:08:24;9.00;91.30
43920;DHT22;29578;51.946;5.874;2022-11-25T04:10:51;9.00;91.30
43920;DHT22;29578;51.946;5.874;2022-11-25T04:13:17;8.80;91.30
43920;DHT22;29578;51.946;5.874;2022-11-25T04:15:45;9.00;91.30
43920;DHT22;29578;51.946;5.874;2022-11-25T04:18:12;9.00;91.40
43920;DHT22;29578;51.946;5.874;2022-11-25T04:20:38;9.00;91.40
43920;DHT22;29578;51.946;5.874;2022-11-25T04:23:04;9.00;91.70
43920;DHT22;29578;51.946;5.874;2022-11-25T04:25:32;9.00;91.40
43920;DHT22;29578;51.946;5.874;2022-11-25T04:27:57;9.00;91.40
43920;DHT22;29578;51.946;5.874;2022-11-25T04:30:24;8.90;91.40
43920;DHT22;29578;51.946;5.874;2022-11-25T04:32:49;9.00;91.40
43920;DHT22;29578;51.946;5.874;2022-11-25T04:35:15;8.90;91.40
43920;DHT22;29578;51.946;5.874;2022-11-25T04:37:41;9.00;91.40
43920;DHT22;29578;51.946;5.874;2022-11-25T04:40:07;9.10;91.50
43920;DHT22;29578;51.946;5.874;2022-11-25T04:42:32;9.00;91.50
43920;DHT22;29578;51.946;5.874;2022-11-25T04:45:03;9.00;91.50
43920;DHT22;29578;51.946;5.874;2022-11-25T04:47:30;9.00;91.50
43920;DHT22;29578;51.946;5.874;2022-11-25T04:49:56;9.00;91.50
43920;DHT22;29578;51.946;5.874;2022-11-25T04:52:22;9.00;91.50
43920;DHT22;29578;51.946;5.874;2022-11-25T04:54:48;9.10;91.60
43920;DHT22;29578;51.946;5.874;2022-11-25T04:57:14;9.00;91.60
43920;DHT22;29578;51.946;5.874;2022-11-25T04:59:41;9.00;91.50
43920;DHT22;29578;51.946;5.874;2022-11-25T05:02:21;9.10;91.60
43920;DHT22;29578;51.946;5.874;2022-11-25T05:04:49;9.00;91.50
43920;DHT22;29578;51.946;5.874;2022-11-25T05:07:17;9.10;91.50
43920;DHT22;29578;51.946;5.874;2022-11-25T05:09:43;9.10;91.50
43920;DHT22;29578;51.946;5.874;2022-11-25T05:12:12;9.10;91.50
43920;DHT22;29578;51.946;5.874;2022-11-25T05:14:38;9.10;91.50
43920;DHT22;29578;51.946;5.874;2022-11-25T05:17:05;9.10;91.60
43920;DHT22;29578;51.946;5.874;2022-11-25T05:19:31;9.10;91.60
43920;DHT22;29578;51.946;5.874;2022-11-25T05:21:57;9.10;91.60
43920;DHT22;29578;51.946;5.874;2022-11-25T05:24:24;9.00;91.60
43920;DHT22;29578;51.946;5.874;2022-11-25T05:26:50;9.10;91.70
43920;DHT22;29578;51.946;5.874;2022-11-25T05:29:15;9.00;91.70
43920;DHT22;29578;51.946;5.874;2022-11-25T05:31:41;9.10;91.70
43920;DHT22;29578;51.946;5.874;2022-11-25T05:34:07;9.10;91.70
43920;DHT22;29578;51.946;5.874;2022-11-25T05:36:33;9.10;91.70
43920;DHT22;29578;51.946;5.874;2022-11-25T05:38:59;9.10;91.70
43920;DHT22;29578;51.946;5.874;2022-11-25T05:41:25;9.10;92.00
43920;DHT22;29578;51.946;5.874;2022-11-25T05:43:51;9.10;91.70
43920;DHT22;29578;51.946;5.874;2022-11-25T05:46:17;9.10;91.70
43920;DHT22;29578;51.946;5.874;2022-11-25T05:48:42;9.20;91.70
43920;DHT22;29578;51.946;5.874;2022-11-25T05:51:08;9.20;91.70
43920;DHT22;29578;51.946;5.874;2022-11-25T05:53:34;9.20;91.60
43920;DHT22;29578;51.946;5.874;2022-11-25T05:56:02;9.20;91.60
43920;DHT22;29578;51.946;5.874;2022-11-25T05:58:29;9.20;91.60
43920;DHT22;29578;51.946;5.874;2022-11-25T06:00:55;9.20;91.60
43920;DHT22;29578;51.946;5.874;2022-11-25T06:03:23;9.20;91.60
43920;DHT22;29578;51.946;5.874;2022-11-25T06:05:49;9.20;91.60
43920;DHT22;29578;51.946;5.874;2022-11-25T06:08:15;9.20;91.60
43920;DHT22;29578;51.946;5.874;2022-11-25T06:10:40;9.20;91.60
43920;DHT22;29578;51.946;5.874;2022-11-25T06:13:08;9.10;91.60
43920;DHT22;29578;51.946;5.874;2022-11-25T06:15:34;9.10;91.70
43920;DHT22;29578;51.946;5.874;2022-11-25T06:18:00;9.00;91.70
43920;DHT22;29578;51.946;5.874;2022-11-25T06:20:25;9.00;91.80
43920;DHT22;29578;51.946;5.874;2022-11-25T06:22:51;9.10;91.80
43920;DHT22;29578;51.946;5.874;2022-11-25T06:25:18;9.00;91.80
43920;DHT22;29578;51.946;5.874;2022-11-25T06:27:43;9.00;91.80
43920;DHT22;29578;51.946;5.874;2022-11-25T06:30:09;9.00;91.80
43920;DHT22;29578;51.946;5.874;2022-11-25T06:32:37;9.00;91.80
43920;DHT22;29578;51.946;5.874;2022-11-25T06:35:03;8.90;91.80
43920;DHT22;29578;51.946;5.874;2022-11-25T06:37:28;8.90;91.80
43920;DHT22;29578;51.946;5.874;2022-11-25T06:39:54;8.90;91.80
43920;DHT22;29578;51.946;5.874;2022-11-25T06:42:19;8.80;91.80
43920;DHT22;29578;51.946;5.874;2022-11-25T06:44:45;8.80;91.90
43920;DHT22;29578;51.946;5.874;2022-11-25T06:47:11;8.80;91.90
43920;DHT22;29578;51.946;5.874;2022-11-25T06:49:36;8.70;91.90
43920;DHT22;29578;51.946;5.874;2022-11-25T06:52:02;8.60;92.00
43920;DHT22;29578;51.946;5.874;2022-11-25T06:54:27;8.50;92.00
43920;DHT22;29578;51.946;5.874;2022-11-25T06:56:53;8.50;92.00
43920;DHT22;29578;51.946;5.874;2022-11-25T06:59:20;8.50;92.10
43920;DHT22;29578;51.946;5.874;2022-11-25T07:01:46;8.40;92.10
43920;DHT22;29578;51.946;5.874;2022-11-25T07:04:12;8.40;92.20
43920;DHT22;29578;51.946;5.874;2022-11-25T07:06:38;8.30;92.20
43920;DHT22;29578;51.946;5.874;2022-11-25T07:09:03;8.30;92.20
43920;DHT22;29578;51.946;5.874;2022-11-25T07:11:32;8.20;92.30
43920;DHT22;29578;51.946;5.874;2022-11-25T07:14:01;8.30;92.30
43920;DHT22;29578;51.946;5.874;2022-11-25T07:16:29;8.30;92.30
43920;DHT22;29578;51.946;5.874;2022-11-25T07:18:55;8.30;92.30
43920;DHT22;29578;51.946;5.874;2022-11-25T07:21:22;8.30;92.20
43920;DHT22;29578;51.946;5.874;2022-11-25T07:23:49;8.30;92.20
43920;DHT22;29578;51.946;5.874;2022-11-25T07:26:17;8.30;92.10
43920;DHT22;29578;51.946;5.874;2022-11-25T07:28:43;8.30;92.10
43920;DHT22;29578;51.946;5.874;2022-11-25T07:31:14;8.30;92.10
43920;DHT22;29578;51.946;5.874;2022-11-25T07:33:41;8.30;92.10
43920;DHT22;29578;51.946;5.874;2022-11-25T07:36:09;8.30;92.10
43920;DHT22;29578;51.946;5.874;2022-11-25T07:38:35;8.30;92.10
43920;DHT22;29578;51.946;5.874;2022-11-25T07:41:36;8.30;92.10
43920;DHT22;29578;51.946;5.874;2022-11-25T07:48:05;8.10;92.10
43920;DHT22;29578;51.946;5.874;2022-11-25T07:50:31;8.20;92.10
43920;DHT22;29578;51.946;5.874;2022-11-25T07:53:22;8.10;92.10
43920;DHT22;29578;51.946;5.874;2022-11-25T07:56:14;8.10;92.10
43920;DHT22;29578;51.946;5.874;2022-11-25T07:59:16;8.20;92.10
43920;DHT22;29578;51.946;5.874;2022-11-25T08:01:45;8.20;92.10
43920;DHT22;29578;51.946;5.874;2022-11-25T08:04:13;8.20;92.10
43920;DHT22;29578;51.946;5.874;2022-11-25T08:06:46;8.10;92.10
43920;DHT22;29578;51.946;5.874;2022-11-25T08:13:06;8.10;92.10
43920;DHT22;29578;51.946;5.874;2022-11-25T08:20:21;8.20;92.10
43920;DHT22;29578;51.946;5.874;2022-11-25T08:23:09;8.20;92.00
43920;DHT22;29578;51.946;5.874;2022-11-25T08:26:12;8.30;92.00
43920;DHT22;29578;51.946;5.874;2022-11-25T08:28:42;8.20;92.00
43920;DHT22;29578;51.946;5.874;2022-11-25T08:31:17;8.20;92.00
43920;DHT22;29578;51.946;5.874;2022-11-25T08:34:09;8.20;92.00
43920;DHT22;29578;51.946;5.874;2022-11-25T08:40:11;8.20;91.90
43920;DHT22;29578;51.946;5.874;2022-11-25T08:42:52;8.30;92.00
43920;DHT22;29578;51.946;5.874;2022-11-25T08:45:29;8.30;91.90
43920;DHT22;29578;51.946;5.874;2022-11-25T08:48:20;8.30;91.90
43920;DHT22;29578;51.946;5.874;2022-11-25T08:51:01;8.40;91.90
43920;DHT22;29578;51.946;5.874;2022-11-25T08:53:57;8.40;91.90
43920;DHT22;29578;51.946;5.874;2022-11-25T08:56:24;8.40;91.90
43920;DHT22;29578;51.946;5.874;2022-11-25T08:58:51;8.40;91.90
43920;DHT22;29578;51.946;5.874;2022-11-25T09:01:19;8.40;91.80
43920;DHT22;29578;51.946;5.874;2022-11-25T09:03:47;8.40;91.80
43920;DHT22;29578;51.946;5.874;2022-11-25T09:06:18;8.40;91.80
43920;DHT22;29578;51.946;5.874;2022-11-25T09:08:54;8.50;91.90
43920;DHT22;29578;51.946;5.874;2022-11-25T09:11:25;8.40;91.80
43920;DHT22;29578;51.946;5.874;2022-11-25T09:13:51;8.50;91.90
43920;DHT22;29578;51.946;5.874;2022-11-25T09:16:19;8.40;91.80
43920;DHT22;29578;51.946;5.874;2022-11-25T09:18:47;8.40;91.80
43920;DHT22;29578;51.946;5.874;2022-11-25T09:21:15;8.40;91.80
43920;DHT22;29578;51.946;5.874;2022-11-25T09:23:41;8.70;91.90
43920;DHT22;29578;51.946;5.874;2022-11-25T09:26:19;8.50;91.90
43920;DHT22;29578;51.946;5.874;2022-11-25T09:28:50;8.60;91.90
43920;DHT22;29578;51.946;5.874;2022-11-25T09:31:17;8.70;91.90
43920;DHT22;29578;51.946;5.874;2022-11-25T09:37:21;8.70;91.80
43920;DHT22;29578;51.946;5.874;2022-11-25T09:39:56;8.70;91.70
43920;DHT22;29578;51.946;5.874;2022-11-25T09:45:50;8.80;91.70
43920;DHT22;29578;51.946;5.874;2022-11-25T09:48:53;8.80;91.70
43920;DHT22;29578;51.946;5.874;2022-11-25T09:51:33;8.80;91.70
43920;DHT22;29578;51.946;5.874;2022-11-25T09:54:16;8.80;91.60
43920;DHT22;29578;51.946;5.874;2022-11-25T09:56:53;8.90;91.60
43920;DHT22;29578;51.946;5.874;2022-11-25T09:59:34;9.00;91.60
43920;DHT22;29578;51.946;5.874;2022-11-25T10:02:11;8.90;91.50
43920;DHT22;29578;51.946;5.874;2022-11-25T10:08:31;9.00;91.50
43920;DHT22;29578;51.946;5.874;2022-11-25T10:11:27;9.10;91.50
43920;DHT22;29578;51.946;5.874;2022-11-25T10:14:05;9.20;91.50
43920;DHT22;29578;51.946;5.874;2022-11-25T10:16:47;9.20;91.50
43920;DHT22;29578;51.946;5.874;2022-11-25T10:22:25;9.20;91.30
43920;DHT22;29578;51.946;5.874;2022-11-25T10:24:55;9.30;91.30
43920;DHT22;29578;51.946;5.874;2022-11-25T10:27:41;9.30;91.30
43920;DHT22;29578;51.946;5.874;2022-11-25T10:30:43;9.40;91.40
43920;DHT22;29578;51.946;5.874;2022-11-25T10:36:32;9.40;91.30
43920;DHT22;29578;51.946;5.874;2022-11-25T10:39:04;9.40;91.30
43920;DHT22;29578;51.946;5.874;2022-11-25T10:42:04;9.50;91.30
43920;DHT22;29578;51.946;5.874;2022-11-25T10:44:35;9.60;91.30
43920;DHT22;29578;51.946;5.874;2022-11-25T10:47:22;9.60;91.20
43920;DHT22;29578;51.946;5.874;2022-11-25T10:50:12;9.60;91.10
43920;DHT22;29578;51.946;5.874;2022-11-25T10:52:49;9.60;91.10
43920;DHT22;29578;51.946;5.874;2022-11-25T10:55:32;9.70;91.10
43920;DHT22;29578;51.946;5.874;2022-11-25T10:58:36;9.70;91.10
43920;DHT22;29578;51.946;5.874;2022-11-25T11:01:14;9.70;91.10
43920;DHT22;29578;51.946;5.874;2022-11-25T11:03:43;9.70;91.10
43920;DHT22;29578;51.946;5.874;2022-11-25T11:06:35;9.80;91.10
43920;DHT22;29578;51.946;5.874;2022-11-25T11:09:01;9.80;91.10
43920;DHT22;29578;51.946;5.874;2022-11-25T11:12:14;9.90;91.00
43920;DHT22;29578;51.946;5.874;2022-11-25T11:15:19;10.00;91.00
43920;DHT22;29578;51.946;5.874;2022-11-25T11:17:50;10.00;90.90
43920;DHT22;29578;51.946;5.874;2022-11-25T11:20:44;10.10;90.90
43920;DHT22;29578;51.946;5.874;2022-11-25T11:23:49;10.10;90.90
43920;DHT22;29578;51.946;5.874;2022-11-25T11:26:30;10.30;90.90
43920;DHT22;29578;51.946;5.874;2022-11-25T11:29:12;10.20;90.80
43920;DHT22;29578;51.946;5.874;2022-11-25T11:32:04;10.30;90.80
43920;DHT22;29578;51.946;5.874;2022-11-25T11:38:01;10.20;90.70
43920;DHT22;29578;51.946;5.874;2022-11-25T11:40:50;10.40;90.70
43920;DHT22;29578;51.946;5.874;2022-11-25T11:43:45;10.40;90.60
43920;DHT22;29578;51.946;5.874;2022-11-25T11:46:40;10.50;90.60
43920;DHT22;29578;51.946;5.874;2022-11-25T11:53:01;10.70;90.60
43920;DHT22;29578;51.946;5.874;2022-11-25T11:56:15;10.80;90.50
43920;DHT22;29578;51.946;5.874;2022-11-25T12:39:19;12.10;88.80
43920;DHT22;29578;51.946;5.874;2022-11-25T12:42:05;12.00;88.70
43920;DHT22;29578;51.946;5.874;2022-11-25T12:48:22;11.80;89.10
43920;DHT22;29578;51.946;5.874;2022-11-25T13:07:48;12.00;89.80
43920;DHT22;29578;51.946;5.874;2022-11-25T13:16:33;12.30;88.80
43920;DHT22;29578;51.946;5.874;2022-11-25T13:18:58;12.20;89.00
43920;DHT22;29578;51.946;5.874;2022-11-25T13:21:24;12.20;89.30
43920;DHT22;29578;51.946;5.874;2022-11-25T13:24:26;12.20;89.30
43920;DHT22;29578;51.946;5.874;2022-11-25T13:26:55;12.30;89.10
43920;DHT22;29578;51.946;5.874;2022-11-25T13:29:51;12.20;88.90
43920;DHT22;29578;51.946;5.874;2022-11-25T13:32:30;12.30;88.90
43920;DHT22;29578;51.946;5.874;2022-11-25T13:35:28;12.20;88.90
43920;DHT22;29578;51.946;5.874;2022-11-25T13:37:55;12.20;89.10
43920;DHT22;29578;51.946;5.874;2022-11-25T13:40:37;12.20;89.20
43920;DHT22;29578;51.946;5.874;2022-11-25T13:43:04;12.30;89.30
43920;DHT22;29578;51.946;5.874;2022-11-25T13:45:44;12.20;89.30
43920;DHT22;29578;51.946;5.874;2022-11-25T13:48:29;12.20;89.40
43920;DHT22;29578;51.946;5.874;2022-11-25T13:51:24;12.10;89.40
43920;DHT22;29578;51.946;5.874;2022-11-25T13:53:56;12.00;89.50
43920;DHT22;29578;51.946;5.874;2022-11-25T13:57:13;12.10;89.80
43920;DHT22;29578;51.946;5.874;2022-11-25T14:07:03;11.80;90.10
43920;DHT22;29578;51.946;5.874;2022-11-25T14:10:06;11.70;90.10
43920;DHT22;29578;51.946;5.874;2022-11-25T14:18:57;11.70;90.20
43920;DHT22;29578;51.946;5.874;2022-11-25T14:29:22;11.50;90.50
43920;DHT22;29578;51.946;5.874;2022-11-25T14:32:13;11.50;90.30
43920;DHT22;29578;51.946;5.874;2022-11-25T14:34:52;11.40;90.30
43920;DHT22;29578;51.946;5.874;2022-11-25T14:37:33;11.40;90.40
43920;DHT22;29578;51.946;5.874;2022-11-25T14:40:22;11.30;90.40
43920;DHT22;29578;51.946;5.874;2022-11-25T14:43:12;11.30;90.40
43920;DHT22;29578;51.946;5.874;2022-11-25T14:46:09;11.30;90.50
43920;DHT22;29578;51.946;5.874;2022-11-25T14:49:08;11.30;90.50
43920;DHT22;29578;51.946;5.874;2022-11-25T14:52:21;11.20;90.40
43920;DHT22;29578;51.946;5.874;2022-11-25T14:54:53;11.20;90.50
43920;DHT22;29578;51.946;5.874;2022-11-25T14:57:34;11.20;90.50
43920;DHT22;29578;51.946;5.874;2022-11-25T15:00:07;11.10;90.50
43920;DHT22;29578;51.946;5.874;2022-11-25T15:06:04;11.10;90.60
43920;DHT22;29578;51.946;5.874;2022-11-25T15:08:43;11.00;90.60
43920;DHT22;29578;51.946;5.874;2022-11-25T15:11:16;11.00;90.60
43920;DHT22;29578;51.946;5.874;2022-11-25T15:13:56;10.90;90.60
43920;DHT22;29578;51.946;5.874;2022-11-25T15:16:29;10.80;90.60
43920;DHT22;29578;51.946;5.874;2022-11-25T15:19:19;10.80;90.70
43920;DHT22;29578;51.946;5.874;2022-11-25T15:21:55;10.60;90.70
43920;DHT22;29578;51.946;5.874;2022-11-25T15:24:23;10.60;90.80
43920;DHT22;29578;51.946;5.874;2022-11-25T15:26:55;10.50;90.90
43920;DHT22;29578;51.946;5.874;2022-11-25T15:29:21;10.50;90.90
43920;DHT22;29578;51.946;5.874;2022-11-25T15:31:49;10.40;91.00
43920;DHT22;29578;51.946;5.874;2022-11-25T15:34:23;10.30;91.00
43920;DHT22;29578;51.946;5.874;2022-11-25T15:37:20;10.30;91.00
43920;DHT22;29578;51.946;5.874;2022-11-25T15:56:56;9.90;91.20
43920;DHT22;29578;51.946;5.874;2022-11-25T16:03:39;9.70;91.30
43920;DHT22;29578;51.946;5.874;2022-11-25T16:06:50;9.60;91.30
43920;DHT22;29578;51.946;5.874;2022-11-25T16:09:20;9.70;91.40
43920;DHT22;29578;51.946;5.874;2022-11-25T16:12:31;9.60;91.40
43920;DHT22;29578;51.946;5.874;2022-11-25T16:15:43;9.60;91.40
43920;DHT22;29578;51.946;5.874;2022-11-25T16:18:39;9.60;91.30
43920;DHT22;29578;51.946;5.874;2022-11-25T16:21:19;9.60;91.30
43920;DHT22;29578;51.946;5.874;2022-11-25T16:23:51;9.60;91.30
43920;DHT22;29578;51.946;5.874;2022-11-25T16:26:28;9.60;91.30
43920;DHT22;29578;51.946;5.874;2022-11-25T16:29:00;9.60;91.20
43920;DHT22;29578;51.946;5.874;2022-11-25T16:31:29;9.70;91.20
43920;DHT22;29578;51.946;5.874;2022-11-25T16:34:08;9.70;91.20
43920;DHT22;29578;51.946;5.874;2022-11-25T16:36:36;9.70;91.20
43920;DHT22;29578;51.946;5.874;2022-11-25T16:39:02;9.70;91.20
43920;DHT22;29578;51.946;5.874;2022-11-25T16:41:28;9.60;91.10
43920;DHT22;29578;51.946;5.874;2022-11-25T16:43:54;9.70;91.20
43920;DHT22;29578;51.946;5.874;2022-11-25T16:46:20;9.60;91.10
43920;DHT22;29578;51.946;5.874;2022-11-25T16:48:46;9.60;91.20
43920;DHT22;29578;51.946;5.874;2022-11-25T16:51:15;9.60;91.20
43920;DHT22;29578;51.946;5.874;2022-11-25T16:53:42;9.50;91.20
43920;DHT22;29578;51.946;5.874;2022-11-25T16:56:17;9.50;91.30
43920;DHT22;29578;51.946;5.874;2022-11-25T16:58:46;9.40;91.20
43920;DHT22;29578;51.946;5.874;2022-11-25T17:01:14;9.40;91.20
43920;DHT22;29578;51.946;5.874;2022-11-25T17:03:41;9.50;91.30
43920;DHT22;29578;51.946;5.874;2022-11-25T17:06:13;9.40;91.30
43920;DHT22;29578;51.946;5.874;2022-11-25T17:08:40;9.40;91.30
43920;DHT22;29578;51.946;5.874;2022-11-25T17:11:10;9.40;91.30
43920;DHT22;29578;51.946;5.874;2022-11-25T17:13:41;9.40;91.30
43920;DHT22;29578;51.946;5.874;2022-11-25T17:16:08;9.30;91.30
43920;DHT22;29578;51.946;5.874;2022-11-25T17:18:35;9.30;91.30
43920;DHT22;29578;51.946;5.874;2022-11-25T17:21:01;9.30;91.40
43920;DHT22;29578;51.946;5.874;2022-11-25T17:23:27;9.20;91.40
43920;DHT22;29578;51.946;5.874;2022-11-25T17:25:52;9.20;91.40
43920;DHT22;29578;51.946;5.874;2022-11-25T17:28:20;9.20;91.40
43920;DHT22;29578;51.946;5.874;2022-11-25T17:30:46;9.10;91.40
43920;DHT22;29578;51.946;5.874;2022-11-25T17:33:14;9.10;91.50
43920;DHT22;29578;51.946;5.874;2022-11-25T17:35:41;9.00;91.50
43920;DHT22;29578;51.946;5.874;2022-11-25T17:38:17;9.00;91.50
43920;DHT22;29578;51.946;5.874;2022-11-25T17:40:43;9.00;91.50
43920;DHT22;29578;51.946;5.874;2022-11-25T17:43:14;8.90;91.50
43920;DHT22;29578;51.946;5.874;2022-11-25T17:45:41;8.90;91.60
43920;DHT22;29578;51.946;5.874;2022-11-25T17:48:15;8.80;91.60
43920;DHT22;29578;51.946;5.874;2022-11-25T17:50:41;8.80;91.60
43920;DHT22;29578;51.946;5.874;2022-11-25T17:53:07;8.80;91.70
43920;DHT22;29578;51.946;5.874;2022-11-25T17:55:35;8.80;91.70
43920;DHT22;29578;51.946;5.874;2022-11-25T17:58:02;8.80;91.70
43920;DHT22;29578;51.946;5.874;2022-11-25T18:00:28;8.70;91.70
43920;DHT22;29578;51.946;5.874;2022-11-25T18:02:53;8.60;91.70
43920;DHT22;29578;51.946;5.874;2022-11-25T18:05:21;8.60;91.70
43920;DHT22;29578;51.946;5.874;2022-11-25T18:07:48;8.50;91.70
43920;DHT22;29578;51.946;5.874;2022-11-25T18:10:16;8.60;91.80
43920;DHT22;29578;51.946;5.874;2022-11-25T18:12:44;8.50;91.80
43920;DHT22;29578;51.946;5.874;2022-11-25T18:15:17;8.50;91.80
43920;DHT22;29578;51.946;5.874;2022-11-25T18:17:43;8.50;91.80
43920;DHT22;29578;51.946;5.874;2022-11-25T18:20:15;8.50;91.80
43920;DHT22;29578;51.946;5.874;2022-11-25T18:22:45;8.40;91.80
43920;DHT22;29578;51.946;5.874;2022-11-25T18:25:14;8.30;91.80
43920;DHT22;29578;51.946;5.874;2022-11-25T18:27:40;8.40;91.90
43920;DHT22;29578;51.946;5.874;2022-11-25T18:30:09;8.40;91.90
43920;DHT22;29578;51.946;5.874;2022-11-25T18:32:39;8.30;91.80
43920;DHT22;29578;51.946;5.874;2022-11-25T18:35:17;8.30;91.90
43920;DHT22;29578;51.946;5.874;2022-11-25T18:37:43;8.30;91.90
43920;DHT22;29578;51.946;5.874;2022-11-25T18:40:09;8.20;91.80
43920;DHT22;29578;51.946;5.874;2022-11-25T18:42:35;8.20;91.90
43920;DHT22;29578;51.946;5.874;2022-11-25T18:45:01;8.20;91.90
43920;DHT22;29578;51.946;5.874;2022-11-25T18:47:27;8.10;91.90
43920;DHT22;29578;51.946;5.874;2022-11-25T18:49:53;8.10;91.90
43920;DHT22;29578;51.946;5.874;2022-11-25T18:52:18;8.10;92.00